sensor_id;sensor_type;location;lat;lon;timestamp;pressure;altitude;pressure_sealevel;temperature;humidity
216;BME280;64590;48.81286795;9.14184224;2023-02-19T00:01:30;98810.63;;;10.34;83.72
216;BME280;64590;48.81286795;9.14184224;2023-02-19T00:03:59;98795.03;;;10.22;84.15
216;BME280;64590;48.81286795;9.14184224;2023-02-19T00:06:29;98802.16;;;10.23;84.07
216;BME280;64590;48.81286795;9.14184224;2023-02-19T00:08:56;98799.91;;;10.32;84.02
216;BME280;64590;48.81286795;9.14184224;2023-02-19T00:11:25;98798.66;;;10.26;84.42
216;BME280;64590;48.81286795;9.14184224;2023-02-19T00:13:53;98794.66;;;10.24;84.81
216;BME280;64590;48.81286795;9.14184224;2023-02-19T00:16:23;98799.88;;;10.29;84.14
216;BME280;64590;48.81286795;9.14184224;2023-02-19T00:18:51;98787.84;;;10.21;85.00
216;BME280;64590;48.81286795;9.14184224;2023-02-19T00:21:19;98787.84;;;10.17;85.35
216;BME280;64590;48.81286795;9.14184224;2023-02-19T00:23:49;98800.34;;;10.34;84.57
216;BME280;64590;48.81286795;9.14184224;2023-02-19T00:26:15;98793.41;;;10.21;85.03
216;BME280;64590;48.81286795;9.14184224;2023-02-19T00:28:42;98794.34;;;10.32;84.62
216;BME280;64590;48.81286795;9.14184224;2023-02-19T00:31:14;98800.69;;;10.33;84.39
216;BME280;64590;48.81286795;9.14184224;2023-02-19T00:33:41;98791.16;;;10.30;84.73
216;BME280;64590;48.81286795;9.14184224;2023-02-19T00:36:08;98795.13;;;10.29;85.00
216;BME280;64590;48.81286795;9.14184224;2023-02-19T00:38:36;98799.66;;;10.48;84.70
216;BME280;64590;48.81286795;9.14184224;2023-02-19T00:41:04;98803.94;;;10.38;84.71
216;BME280;64590;48.81286795;9.14184224;2023-02-19T00:43:44;98806.81;;;10.49;83.89
216;BME280;64590;48.81286795;9.14184224;2023-02-19T00:46:10;98800.75;;;10.36;84.09
216;BME280;64590;48.81286795;9.14184224;2023-02-19T00:48:37;98796.72;;;10.30;84.64
216;BME280;64590;48.81286795;9.14184224;2023-02-19T00:51:04;98800.66;;;10.29;84.92
216;BME280;64590;48.81286795;9.14184224;2023-02-19T00:53:31;98800.63;;;10.26;84.98
216;BME280;64590;48.81286795;9.14184224;2023-02-19T00:55:57;98798.38;;;10.38;84.16
216;BME280;64590;48.81286795;9.14184224;2023-02-19T00:58:25;98790.06;;;10.38;83.10
216;BME280;64590;48.81286795;9.14184224;2023-02-19T01:00:52;98783.69;;;10.34;82.96
216;BME280;64590;48.81286795;9.14184224;2023-02-19T01:03:18;98786.66;;;10.52;82.45
216;BME280;64590;48.81286795;9.14184224;2023-02-19T01:05:46;98782.59;;;10.46;80.59
216;BME280;64590;48.81286795;9.14184224;2023-02-19T01:08:13;98777.84;;;10.43;81.32
216;BME280;64590;48.81286795;9.14184224;2023-02-19T01:10:40;98776.66;;;10.44;81.96
216;BME280;64590;48.81286795;9.14184224;2023-02-19T01:13:06;98768.19;;;10.33;81.51
216;BME280;64590;48.81286795;9.14184224;2023-02-19T01:15:34;98767.13;;;10.45;79.92
216;BME280;64590;48.81286795;9.14184224;2023-02-19T01:18:01;98775.41;;;10.41;80.37
216;BME280;64590;48.81286795;9.14184224;2023-02-19T01:20:28;98763.09;;;10.39;80.39
216;BME280;64590;48.81286795;9.14184224;2023-02-19T01:22:55;98760.78;;;10.44;80.08
216;BME280;64590;48.81286795;9.14184224;2023-02-19T01:25:21;98767.44;;;10.36;79.69
216;BME280;64590;48.81286795;9.14184224;2023-02-19T01:27:48;98754.84;;;10.46;79.32
216;BME280;64590;48.81286795;9.14184224;2023-02-19T01:30:16;98744.88;;;10.41;78.82
216;BME280;64590;48.81286795;9.14184224;2023-02-19T01:32:45;98756.47;;;10.51;78.32
216;BME280;64590;48.81286795;9.14184224;2023-02-19T01:35:11;98751.59;;;10.37;78.40
216;BME280;64590;48.81286795;9.14184224;2023-02-19T01:37:38;98746.03;;;10.37;78.88
216;BME280;64590;48.81286795;9.14184224;2023-02-19T01:40:05;98749.69;;;10.44;78.33
216;BME280;64590;48.81286795;9.14184224;2023-02-19T01:42:32;98751.69;;;10.47;77.88
216;BME280;64590;48.81286795;9.14184224;2023-02-19T01:45:24;98752.50;;;10.48;78.09
216;BME280;64590;48.81286795;9.14184224;2023-02-19T01:47:58;98747.72;;;10.45;77.35
216;BME280;64590;48.81286795;9.14184224;2023-02-19T01:50:27;98754.06;;;10.45;77.55
216;BME280;64590;48.81286795;9.14184224;2023-02-19T01:52:55;98759.63;;;10.45;77.77
216;BME280;64590;48.81286795;9.14184224;2023-02-19T01:55:22;98751.28;;;10.45;77.90
216;BME280;64590;48.81286795;9.14184224;2023-02-19T01:57:51;98749.22;;;10.39;77.79
216;BME280;64590;48.81286795;9.14184224;2023-02-19T02:00:19;98746.94;;;10.48;77.63
216;BME280;64590;48.81286795;9.14184224;2023-02-19T02:02:51;98740.09;;;10.38;78.25
216;BME280;64590;48.81286795;9.14184224;2023-02-19T02:05:39;98745.69;;;10.42;78.28
216;BME280;64590;48.81286795;9.14184224;2023-02-19T02:08:11;98750.00;;;10.36;78.87
216;BME280;64590;48.81286795;9.14184224;2023-02-19T02:10:56;98755.47;;;10.29;78.18
216;BME280;64590;48.81286795;9.14184224;2023-02-19T02:13:23;98755.06;;;10.27;79.31
216;BME280;64590;48.81286795;9.14184224;2023-02-19T02:15:56;98750.91;;;10.13;80.18
216;BME280;64590;48.81286795;9.14184224;2023-02-19T02:18:31;98752.13;;;10.16;80.80
216;BME280;64590;48.81286795;9.14184224;2023-02-19T02:21:20;98743.66;;;10.02;81.65
216;BME280;64590;48.81286795;9.14184224;2023-02-19T02:24:05;98745.22;;;9.99;82.50
216;BME280;64590;48.81286795;9.14184224;2023-02-19T02:26:46;98732.41;;;9.87;83.68
216;BME280;64590;48.81286795;9.14184224;2023-02-19T02:29:24;98723.56;;;9.78;84.29
216;BME280;64590;48.81286795;9.14184224;2023-02-19T02:31:58;98726.44;;;9.85;84.78
216;BME280;64590;48.81286795;9.14184224;2023-02-19T02:34:33;98717.75;;;9.87;84.69
216;BME280;64590;48.81286795;9.14184224;2023-02-19T02:37:03;98716.56;;;9.88;84.58
216;BME280;64590;48.81286795;9.14184224;2023-02-19T02:39:32;98715.63;;;9.73;84.98
216;BME280;64590;48.81286795;9.14184224;2023-02-19T02:42:00;98702.97;;;9.76;84.77
216;BME280;64590;48.81286795;9.14184224;2023-02-19T02:44:53;98709.63;;;9.71;84.57
216;BME280;64590;48.81286795;9.14184224;2023-02-19T02:47:46;98711.94;;;9.66;84.98
216;BME280;64590;48.81286795;9.14184224;2023-02-19T02:50:17;98710.78;;;9.67;84.73
216;BME280;64590;48.81286795;9.14184224;2023-02-19T02:52:47;98710.88;;;9.74;84.53
216;BME280;64590;48.81286795;9.14184224;2023-02-19T02:55:37;98710.81;;;9.70;84.33
216;BME280;64590;48.81286795;9.14184224;2023-02-19T02:58:07;98719.19;;;9.74;84.62
216;BME280;64590;48.81286795;9.14184224;2023-02-19T03:00:35;98709.00;;;9.85;84.19
216;BME280;64590;48.81286795;9.14184224;2023-02-19T03:03:20;98716.91;;;9.83;84.18
216;BME280;64590;48.81286795;9.14184224;2023-02-19T03:05:51;98715.38;;;9.89;83.44
216;BME280;64590;48.81286795;9.14184224;2023-02-19T03:08:24;98716.94;;;9.86;84.11
216;BME280;64590;48.81286795;9.14184224;2023-02-19T03:10:56;98712.06;;;9.76;84.26
216;BME280;64590;48.81286795;9.14184224;2023-02-19T03:13:46;98712.00;;;9.73;84.94
216;BME280;64590;48.81286795;9.14184224;2023-02-19T03:16:35;98711.59;;;9.71;85.18
216;BME280;64590;48.81286795;9.14184224;2023-02-19T03:19:24;98709.34;;;9.80;85.60
216;BME280;64590;48.81286795;9.14184224;2023-02-19T03:21:55;98707.66;;;9.72;85.46
216;BME280;64590;48.81286795;9.14184224;2023-02-19T03:24:27;98708.88;;;9.74;85.36
216;BME280;64590;48.81286795;9.14184224;2023-02-19T03:27:14;98702.50;;;9.70;86.47
216;BME280;64590;48.81286795;9.14184224;2023-02-19T03:29:47;98700.50;;;9.71;86.09
216;BME280;64590;48.81286795;9.14184224;2023-02-19T03:32:18;98701.47;;;9.52;86.76
216;BME280;64590;48.81286795;9.14184224;2023-02-19T03:34:52;98704.09;;;9.71;86.13
216;BME280;64590;48.81286795;9.14184224;2023-02-19T03:37:24;98704.72;;;9.57;87.11
216;BME280;64590;48.81286795;9.14184224;2023-02-19T03:39:55;98702.69;;;9.54;86.62
216;BME280;64590;48.81286795;9.14184224;2023-02-19T03:42:30;98705.81;;;9.49;87.19
216;BME280;64590;48.81286795;9.14184224;2023-02-19T03:45:10;98704.81;;;9.65;87.25
216;BME280;64590;48.81286795;9.14184224;2023-02-19T03:47:44;98706.91;;;9.75;85.92
216;BME280;64590;48.81286795;9.14184224;2023-02-19T03:50:18;98703.25;;;9.67;86.51
216;BME280;64590;48.81286795;9.14184224;2023-02-19T03:52:54;98705.69;;;9.72;86.23
216;BME280;64590;48.81286795;9.14184224;2023-02-19T03:55:26;98713.53;;;9.67;86.24
216;BME280;64590;48.81286795;9.14184224;2023-02-19T03:57:59;98712.78;;;9.70;85.85
216;BME280;64590;48.81286795;9.14184224;2023-02-19T04:00:33;98710.47;;;9.75;86.33
216;BME280;64590;48.81286795;9.14184224;2023-02-19T04:03:06;98713.38;;;9.86;85.23
216;BME280;64590;48.81286795;9.14184224;2023-02-19T04:05:40;98717.56;;;9.73;85.68
216;BME280;64590;48.81286795;9.14184224;2023-02-19T04:08:14;98717.13;;;9.67;86.04
216;BME280;64590;48.81286795;9.14184224;2023-02-19T04:10:48;98719.97;;;9.74;85.24
216;BME280;64590;48.81286795;9.14184224;2023-02-19T04:13:19;98721.06;;;9.66;85.51
216;BME280;64590;48.81286795;9.14184224;2023-02-19T04:15:49;98729.09;;;9.75;84.67
216;BME280;64590;48.81286795;9.14184224;2023-02-19T04:18:17;98723.19;;;9.80;85.72
216;BME280;64590;48.81286795;9.14184224;2023-02-19T04:20:47;98730.88;;;9.94;85.27
216;BME280;64590;48.81286795;9.14184224;2023-02-19T04:23:16;98732.25;;;9.73;85.21
216;BME280;64590;48.81286795;9.14184224;2023-02-19T04:25:47;98733.47;;;9.76;85.22
216;BME280;64590;48.81286795;9.14184224;2023-02-19T04:28:17;98728.03;;;9.86;84.64
216;BME280;64590;48.81286795;9.14184224;2023-02-19T04:30:44;98731.28;;;9.92;84.36
216;BME280;64590;48.81286795;9.14184224;2023-02-19T04:33:11;98745.56;;;9.94;83.77
216;BME280;64590;48.81286795;9.14184224;2023-02-19T04:35:38;98746.22;;;9.84;83.60
216;BME280;64590;48.81286795;9.14184224;2023-02-19T04:38:05;98750.59;;;9.85;84.51
216;BME280;64590;48.81286795;9.14184224;2023-02-19T04:40:32;98754.13;;;9.82;83.70
216;BME280;64590;48.81286795;9.14184224;2023-02-19T04:42:59;98753.69;;;9.80;84.07
216;BME280;64590;48.81286795;9.14184224;2023-02-19T04:45:25;98748.72;;;9.62;84.00
216;BME280;64590;48.81286795;9.14184224;2023-02-19T04:47:52;98754.63;;;9.61;84.00
216;BME280;64590;48.81286795;9.14184224;2023-02-19T04:50:18;98756.84;;;9.48;83.66
216;BME280;64590;48.81286795;9.14184224;2023-02-19T04:52:45;98760.06;;;9.50;83.66
216;BME280;64590;48.81286795;9.14184224;2023-02-19T04:55:13;98760.25;;;9.65;82.57
216;BME280;64590;48.81286795;9.14184224;2023-02-19T04:57:40;98771.56;;;9.52;82.84
216;BME280;64590;48.81286795;9.14184224;2023-02-19T05:00:08;98775.50;;;9.51;83.58
216;BME280;64590;48.81286795;9.14184224;2023-02-19T05:02:35;98773.53;;;9.52;84.07
216;BME280;64590;48.81286795;9.14184224;2023-02-19T05:05:02;98779.00;;;9.75;81.76
216;BME280;64590;48.81286795;9.14184224;2023-02-19T05:07:28;98780.25;;;9.51;82.01
216;BME280;64590;48.81286795;9.14184224;2023-02-19T05:09:55;98778.28;;;9.51;82.72
216;BME280;64590;48.81286795;9.14184224;2023-02-19T05:12:25;98780.75;;;9.60;81.56
216;BME280;64590;48.81286795;9.14184224;2023-02-19T05:14:52;98783.00;;;9.51;82.40
216;BME280;64590;48.81286795;9.14184224;2023-02-19T05:17:18;98788.44;;;9.44;82.89
216;BME280;64590;48.81286795;9.14184224;2023-02-19T05:19:45;98791.38;;;9.54;82.48
216;BME280;64590;48.81286795;9.14184224;2023-02-19T05:22:11;98790.94;;;9.52;82.29
216;BME280;64590;48.81286795;9.14184224;2023-02-19T05:24:38;98789.03;;;9.56;81.75
216;BME280;64590;48.81286795;9.14184224;2023-02-19T05:27:04;98781.75;;;9.75;81.15
216;BME280;64590;48.81286795;9.14184224;2023-02-19T05:29:32;98777.84;;;9.79;81.89
216;BME280;64590;48.81286795;9.14184224;2023-02-19T05:31:59;98793.66;;;9.75;81.65
216;BME280;64590;48.81286795;9.14184224;2023-02-19T05:34:25;98790.75;;;9.65;81.63
216;BME280;64590;48.81286795;9.14184224;2023-02-19T05:36:52;98801.84;;;9.68;81.79
216;BME280;64590;48.81286795;9.14184224;2023-02-19T05:39:19;98801.19;;;9.48;82.43
216;BME280;64590;48.81286795;9.14184224;2023-02-19T05:41:46;98802.09;;;9.86;81.13
216;BME280;64590;48.81286795;9.14184224;2023-02-19T05:44:12;98805.38;;;9.65;81.28
216;BME280;64590;48.81286795;9.14184224;2023-02-19T05:46:40;98811.84;;;9.46;80.52
216;BME280;64590;48.81286795;9.14184224;2023-02-19T05:49:07;98812.91;;;9.65;80.03
216;BME280;64590;48.81286795;9.14184224;2023-02-19T05:51:33;98809.84;;;9.47;80.38
216;BME280;64590;48.81286795;9.14184224;2023-02-19T05:54:00;98810.25;;;9.45;81.09
216;BME280;64590;48.81286795;9.14184224;2023-02-19T05:56:30;98810.63;;;9.44;80.33
216;BME280;64590;48.81286795;9.14184224;2023-02-19T05:58:57;98822.34;;;9.33;80.70
216;BME280;64590;48.81286795;9.14184224;2023-02-19T06:01:26;98820.78;;;9.36;79.85
216;BME280;64590;48.81286795;9.14184224;2023-02-19T06:03:55;98804.81;;;9.26;80.63
216;BME280;64590;48.81286795;9.14184224;2023-02-19T06:06:22;98821.72;;;9.21;80.62
216;BME280;64590;48.81286795;9.14184224;2023-02-19T06:08:49;98819.94;;;9.32;80.88
216;BME280;64590;48.81286795;9.14184224;2023-02-19T06:11:16;98820.78;;;9.36;80.37
216;BME280;64590;48.81286795;9.14184224;2023-02-19T06:13:43;98834.25;;;9.38;80.70
216;BME280;64590;48.81286795;9.14184224;2023-02-19T06:16:10;98820.31;;;9.30;79.78
216;BME280;64590;48.81286795;9.14184224;2023-02-19T06:18:37;98843.63;;;9.29;80.94
216;BME280;64590;48.81286795;9.14184224;2023-02-19T06:21:08;98843.66;;;9.56;79.38
216;BME280;64590;48.81286795;9.14184224;2023-02-19T06:23:36;98834.00;;;9.46;79.39
216;BME280;64590;48.81286795;9.14184224;2023-02-19T06:26:10;98830.13;;;9.51;79.31
216;BME280;64590;48.81286795;9.14184224;2023-02-19T06:28:39;98833.97;;;9.43;79.68
216;BME280;64590;48.81286795;9.14184224;2023-02-19T06:31:07;98833.19;;;9.46;79.51
216;BME280;64590;48.81286795;9.14184224;2023-02-19T06:33:35;98830.81;;;9.44;78.78
216;BME280;64590;48.81286795;9.14184224;2023-02-19T06:36:03;98830.34;;;9.39;78.20
216;BME280;64590;48.81286795;9.14184224;2023-02-19T06:38:31;98837.84;;;9.38;78.93
216;BME280;64590;48.81286795;9.14184224;2023-02-19T06:40:59;98846.84;;;9.31;78.49
216;BME280;64590;48.81286795;9.14184224;2023-02-19T06:43:26;98842.81;;;9.52;76.90
216;BME280;64590;48.81286795;9.14184224;2023-02-19T06:45:52;98849.78;;;9.42;76.51
216;BME280;64590;48.81286795;9.14184224;2023-02-19T06:48:19;98861.34;;;9.48;76.09
216;BME280;64590;48.81286795;9.14184224;2023-02-19T06:50:46;98864.44;;;9.43;76.11
216;BME280;64590;48.81286795;9.14184224;2023-02-19T06:53:12;98874.84;;;9.49;75.67
216;BME280;64590;48.81286795;9.14184224;2023-02-19T06:55:40;98867.38;;;9.53;75.77
216;BME280;64590;48.81286795;9.14184224;2023-02-19T06:58:06;98877.97;;;9.48;75.66
216;BME280;64590;48.81286795;9.14184224;2023-02-19T07:00:33;98881.44;;;9.41;74.87
216;BME280;64590;48.81286795;9.14184224;2023-02-19T07:03:00;98879.84;;;9.40;75.28
216;BME280;64590;48.81286795;9.14184224;2023-02-19T07:05:27;98882.16;;;9.38;75.32
216;BME280;64590;48.81286795;9.14184224;2023-02-19T07:07:53;98878.59;;;9.38;75.27
216;BME280;64590;48.81286795;9.14184224;2023-02-19T07:10:20;98886.97;;;9.41;74.79
216;BME280;64590;48.81286795;9.14184224;2023-02-19T07:12:48;98893.63;;;9.37;75.24
216;BME280;64590;48.81286795;9.14184224;2023-02-19T07:15:14;98883.03;;;9.42;75.51
216;BME280;64590;48.81286795;9.14184224;2023-02-19T07:17:41;98878.06;;;9.55;75.42
216;BME280;64590;48.81286795;9.14184224;2023-02-19T07:20:07;98891.47;;;9.49;75.58
216;BME280;64590;48.81286795;9.14184224;2023-02-19T07:22:34;98892.94;;;9.43;75.22
216;BME280;64590;48.81286795;9.14184224;2023-02-19T07:25:00;98899.50;;;9.31;75.92
216;BME280;64590;48.81286795;9.14184224;2023-02-19T07:27:27;98902.94;;;9.48;75.33
216;BME280;64590;48.81286795;9.14184224;2023-02-19T07:29:55;98912.72;;;9.42;75.26
216;BME280;64590;48.81286795;9.14184224;2023-02-19T07:32:21;98903.38;;;9.53;75.94
216;BME280;64590;48.81286795;9.14184224;2023-02-19T07:34:48;98913.31;;;9.54;74.03
216;BME280;64590;48.81286795;9.14184224;2023-02-19T07:37:15;98907.28;;;9.49;74.63
216;BME280;64590;48.81286795;9.14184224;2023-02-19T07:39:41;98913.94;;;9.44;73.56
216;BME280;64590;48.81286795;9.14184224;2023-02-19T07:42:08;98921.31;;;9.37;73.60
216;BME280;64590;48.81286795;9.14184224;2023-02-19T07:44:36;98911.16;;;9.44;73.61
216;BME280;64590;48.81286795;9.14184224;2023-02-19T07:47:04;98906.50;;;9.48;73.60
216;BME280;64590;48.81286795;9.14184224;2023-02-19T07:49:30;98931.59;;;9.59;72.44
216;BME280;64590;48.81286795;9.14184224;2023-02-19T07:51:57;98927.88;;;9.48;73.12
216;BME280;64590;48.81286795;9.14184224;2023-02-19T07:54:24;98930.63;;;9.48;72.72
216;BME280;64590;48.81286795;9.14184224;2023-02-19T07:56:50;98941.88;;;9.58;72.85
216;BME280;64590;48.81286795;9.14184224;2023-02-19T07:59:17;98943.00;;;9.54;71.87
216;BME280;64590;48.81286795;9.14184224;2023-02-19T08:01:45;98939.41;;;9.53;71.41
216;BME280;64590;48.81286795;9.14184224;2023-02-19T08:04:31;98933.94;;;9.57;72.01
216;BME280;64590;48.81286795;9.14184224;2023-02-19T08:06:58;98939.66;;;9.68;72.38
216;BME280;64590;48.81286795;9.14184224;2023-02-19T08:09:24;98942.06;;;9.69;72.06
216;BME280;64590;48.81286795;9.14184224;2023-02-19T08:11:51;98936.38;;;9.62;71.94
216;BME280;64590;48.81286795;9.14184224;2023-02-19T08:14:35;98941.25;;;9.69;72.06
216;BME280;64590;48.81286795;9.14184224;2023-02-19T08:17:02;98941.94;;;9.62;72.45
216;BME280;64590;48.81286795;9.14184224;2023-02-19T08:19:28;98938.19;;;9.74;72.18
216;BME280;64590;48.81286795;9.14184224;2023-02-19T08:21:56;98935.72;;;9.69;72.39
216;BME280;64590;48.81286795;9.14184224;2023-02-19T08:24:23;98932.25;;;9.75;72.32
216;BME280;64590;48.81286795;9.14184224;2023-02-19T08:26:50;98935.97;;;9.86;72.87
216;BME280;64590;48.81286795;9.14184224;2023-02-19T08:29:16;98951.03;;;9.85;70.72
216;BME280;64590;48.81286795;9.14184224;2023-02-19T08:31:43;98953.50;;;9.90;70.55
216;BME280;64590;48.81286795;9.14184224;2023-02-19T08:34:09;98956.16;;;9.83;70.92
216;BME280;64590;48.81286795;9.14184224;2023-02-19T08:36:36;98964.50;;;9.87;70.61
216;BME280;64590;48.81286795;9.14184224;2023-02-19T08:39:04;98966.06;;;9.84;71.16
216;BME280;64590;48.81286795;9.14184224;2023-02-19T08:41:31;98966.44;;;9.83;70.93
216;BME280;64590;48.81286795;9.14184224;2023-02-19T08:43:57;98967.50;;;9.75;71.44
216;BME280;64590;48.81286795;9.14184224;2023-02-19T08:46:24;98960.34;;;9.74;71.50
216;BME280;64590;48.81286795;9.14184224;2023-02-19T08:48:50;98962.78;;;9.79;71.79
216;BME280;64590;48.81286795;9.14184224;2023-02-19T08:51:17;98967.50;;;9.75;71.87
216;BME280;64590;48.81286795;9.14184224;2023-02-19T08:53:44;98969.69;;;9.88;71.44
216;BME280;64590;48.81286795;9.14184224;2023-02-19T08:56:14;98972.34;;;9.81;71.64
216;BME280;64590;48.81286795;9.14184224;2023-02-19T08:58:42;98972.53;;;9.69;71.98
216;BME280;64590;48.81286795;9.14184224;2023-02-19T09:01:09;98977.91;;;9.58;71.84
216;BME280;64590;48.81286795;9.14184224;2023-02-19T09:03:36;98984.56;;;9.54;72.58
216;BME280;64590;48.81286795;9.14184224;2023-02-19T09:06:03;98992.44;;;9.52;72.71
216;BME280;64590;48.81286795;9.14184224;2023-02-19T09:08:29;99003.16;;;9.53;73.67
216;BME280;64590;48.81286795;9.14184224;2023-02-19T09:10:57;99005.25;;;9.37;74.80
216;BME280;64590;48.81286795;9.14184224;2023-02-19T09:13:25;99006.53;;;9.43;74.62
216;BME280;64590;48.81286795;9.14184224;2023-02-19T09:15:51;99009.69;;;9.42;74.83
216;BME280;64590;48.81286795;9.14184224;2023-02-19T09:18:18;99019.13;;;9.60;73.19
216;BME280;64590;48.81286795;9.14184224;2023-02-19T09:20:45;99014.06;;;9.66;72.81
216;BME280;64590;48.81286795;9.14184224;2023-02-19T09:23:11;99005.31;;;9.63;71.00
216;BME280;64590;48.81286795;9.14184224;2023-02-19T09:25:38;99014.16;;;9.73;71.05
216;BME280;64590;48.81286795;9.14184224;2023-02-19T09:28:04;99022.69;;;9.83;70.04
216;BME280;64590;48.81286795;9.14184224;2023-02-19T09:30:32;99025.50;;;9.87;70.02
216;BME280;64590;48.81286795;9.14184224;2023-02-19T09:32:59;99032.34;;;9.93;69.59
216;BME280;64590;48.81286795;9.14184224;2023-02-19T09:35:25;99024.88;;;9.97;68.17
216;BME280;64590;48.81286795;9.14184224;2023-02-19T09:37:52;99024.47;;;9.95;68.30
216;BME280;64590;48.81286795;9.14184224;2023-02-19T09:40:19;99027.53;;;9.90;68.46
216;BME280;64590;48.81286795;9.14184224;2023-02-19T09:42:46;99022.56;;;9.99;67.42
216;BME280;64590;48.81286795;9.14184224;2023-02-19T09:45:18;99025.41;;;10.06;68.15
216;BME280;64590;48.81286795;9.14184224;2023-02-19T09:47:48;99026.16;;;10.26;66.92
216;BME280;64590;48.81286795;9.14184224;2023-02-19T09:50:20;99022.88;;;10.20;66.41
216;BME280;64590;48.81286795;9.14184224;2023-02-19T09:52:50;99017.09;;;10.29;65.99
216;BME280;64590;48.81286795;9.14184224;2023-02-19T09:55:25;99025.13;;;10.38;65.28
216;BME280;64590;48.81286795;9.14184224;2023-02-19T09:57:55;99030.16;;;10.55;64.24
216;BME280;64590;48.81286795;9.14184224;2023-02-19T10:00:24;99033.69;;;10.52;64.23
216;BME280;64590;48.81286795;9.14184224;2023-02-19T10:02:57;99033.91;;;10.70;63.04
216;BME280;64590;48.81286795;9.14184224;2023-02-19T10:05:26;99027.50;;;10.66;63.63
216;BME280;64590;48.81286795;9.14184224;2023-02-19T10:07:54;99016.09;;;10.71;63.60
216;BME280;64590;48.81286795;9.14184224;2023-02-19T10:10:28;99011.03;;;10.80;63.61
216;BME280;64590;48.81286795;9.14184224;2023-02-19T10:13:00;99013.53;;;10.89;63.02
216;BME280;64590;48.81286795;9.14184224;2023-02-19T10:15:35;99017.13;;;10.93;62.12
216;BME280;64590;48.81286795;9.14184224;2023-02-19T10:18:04;99033.09;;;10.99;62.84
216;BME280;64590;48.81286795;9.14184224;2023-02-19T10:20:32;99027.97;;;11.01;61.64
216;BME280;64590;48.81286795;9.14184224;2023-02-19T10:23:01;99033.38;;;10.91;62.85
216;BME280;64590;48.81286795;9.14184224;2023-02-19T10:25:29;99037.03;;;10.95;62.28
216;BME280;64590;48.81286795;9.14184224;2023-02-19T10:27:57;99038.66;;;10.99;62.96
216;BME280;64590;48.81286795;9.14184224;2023-02-19T10:30:27;99035.91;;;11.03;62.74
216;BME280;64590;48.81286795;9.14184224;2023-02-19T10:33:03;99045.63;;;11.20;62.76
216;BME280;64590;48.81286795;9.14184224;2023-02-19T10:35:36;99050.59;;;11.37;62.47
216;BME280;64590;48.81286795;9.14184224;2023-02-19T10:38:04;99055.25;;;11.26;61.67
216;BME280;64590;48.81286795;9.14184224;2023-02-19T10:40:32;99063.63;;;11.29;61.35
216;BME280;64590;48.81286795;9.14184224;2023-02-19T10:43:01;99057.59;;;11.24;62.57
216;BME280;64590;48.81286795;9.14184224;2023-02-19T10:45:33;99066.81;;;11.31;62.64
216;BME280;64590;48.81286795;9.14184224;2023-02-19T10:48:00;99079.44;;;11.25;62.23
216;BME280;64590;48.81286795;9.14184224;2023-02-19T10:50:30;99076.06;;;11.09;62.32
216;BME280;64590;48.81286795;9.14184224;2023-02-19T10:52:59;99064.34;;;10.93;62.53
216;BME280;64590;48.81286795;9.14184224;2023-02-19T10:55:30;99082.09;;;11.15;62.46
216;BME280;64590;48.81286795;9.14184224;2023-02-19T10:58:19;99073.97;;;11.32;62.82
216;BME280;64590;48.81286795;9.14184224;2023-02-19T11:00:47;99078.97;;;11.20;62.76
216;BME280;64590;48.81286795;9.14184224;2023-02-19T11:03:18;99073.41;;;11.20;62.18
216;BME280;64590;48.81286795;9.14184224;2023-02-19T11:05:51;99089.25;;;11.16;62.32
216;BME280;64590;48.81286795;9.14184224;2023-02-19T11:08:22;99092.63;;;10.98;63.45
216;BME280;64590;48.81286795;9.14184224;2023-02-19T11:10:49;99087.56;;;11.08;63.42
216;BME280;64590;48.81286795;9.14184224;2023-02-19T11:13:20;99084.59;;;10.93;63.38
216;BME280;64590;48.81286795;9.14184224;2023-02-19T11:15:50;99085.63;;;10.82;63.05
216;BME280;64590;48.81286795;9.14184224;2023-02-19T11:18:21;99096.84;;;10.89;62.85
216;BME280;64590;48.81286795;9.14184224;2023-02-19T11:20:49;99096.59;;;10.71;63.20
216;BME280;64590;48.81286795;9.14184224;2023-02-19T11:23:22;99096.72;;;10.78;63.20
216;BME280;64590;48.81286795;9.14184224;2023-02-19T11:25:52;99083.94;;;10.73;63.34
216;BME280;64590;48.81286795;9.14184224;2023-02-19T11:28:25;99071.00;;;10.85;64.56
216;BME280;64590;48.81286795;9.14184224;2023-02-19T11:30:53;99061.31;;;10.71;63.81
216;BME280;64590;48.81286795;9.14184224;2023-02-19T11:33:24;99068.88;;;10.74;65.10
216;BME280;64590;48.81286795;9.14184224;2023-02-19T11:36:03;99062.50;;;10.70;65.06
216;BME280;64590;48.81286795;9.14184224;2023-02-19T11:38:45;99069.28;;;10.76;63.91
216;BME280;64590;48.81286795;9.14184224;2023-02-19T11:41:16;99064.53;;;10.77;64.53
216;BME280;64590;48.81286795;9.14184224;2023-02-19T11:43:53;99082.56;;;10.60;64.43
216;BME280;64590;48.81286795;9.14184224;2023-02-19T11:46:29;99083.31;;;10.57;64.86
216;BME280;64590;48.81286795;9.14184224;2023-02-19T11:49:04;99088.22;;;10.67;65.12
216;BME280;64590;48.81286795;9.14184224;2023-02-19T11:51:55;99090.25;;;11.00;63.92
216;BME280;64590;48.81286795;9.14184224;2023-02-19T11:54:41;99088.81;;;10.80;63.43
216;BME280;64590;48.81286795;9.14184224;2023-02-19T11:57:24;99096.28;;;11.06;63.29
216;BME280;64590;48.81286795;9.14184224;2023-02-19T12:00:02;99095.00;;;11.00;62.07
216;BME280;64590;48.81286795;9.14184224;2023-02-19T12:02:50;99108.53;;;11.01;62.86
216;BME280;64590;48.81286795;9.14184224;2023-02-19T12:05:30;99112.47;;;11.00;62.24